createdAt,value
2018-02-22T00:01:54.798Z,34.73
2018-02-22T00:04:22.331Z,34.47
2018-02-22T00:06:49.937Z,32.00
2018-02-22T00:09:17.442Z,36.33
2018-02-22T00:11:45.004Z,35.87
2018-02-22T00:14:12.543Z,37.43
2018-02-22T00:16:40.082Z,34.27
2018-02-22T00:19:07.626Z,35.30
2018-02-22T00:21:35.132Z,34.47
2018-02-22T00:24:02.673Z,33.33
2018-02-22T00:26:30.196Z,33.00
2018-02-22T00:28:57.698Z,35.37
2018-02-22T00:31:25.209Z,33.53
2018-02-22T00:33:53.496Z,35.77
2018-02-22T00:36:21.007Z,33.80
2018-02-22T00:38:48.530Z,35.43
2018-02-22T00:41:17.200Z,35.50
2018-02-22T00:43:44.726Z,36.63
2018-02-22T00:46:12.221Z,35.43
2018-02-22T00:48:39.749Z,30.30
2018-02-22T00:51:07.276Z,31.60
2018-02-22T00:53:35.572Z,36.10
2018-02-22T00:56:03.106Z,33.57
2018-02-22T00:58:30.630Z,32.73
2018-02-22T01:00:58.154Z,34.07
2018-02-22T01:03:25.709Z,32.23
2018-02-22T01:05:53.220Z,32.77
2018-02-22T01:08:20.756Z,31.40
2018-02-22T01:10:48.271Z,31.93
2018-02-22T01:13:16.554Z,33.23
2018-02-22T01:15:44.343Z,33.00
2018-02-22T01:18:11.882Z,33.83
2018-02-22T01:20:39.402Z,34.87
2018-02-22T01:23:06.950Z,35.70
2018-02-22T01:25:34.467Z,32.23
2018-02-22T01:28:02.000Z,33.93
2018-02-22T01:30:29.525Z,32.90
2018-02-22T01:32:57.077Z,32.03
2018-02-22T01:35:24.595Z,34.63
2018-02-22T01:37:52.873Z,35.47
2018-02-22T01:40:21.160Z,32.67
2018-02-22T01:42:48.683Z,26.70
2018-02-22T01:45:16.205Z,32.87
2018-02-22T01:47:43.745Z,34.67
2018-02-22T01:50:11.286Z,33.10
2018-02-22T01:52:39.571Z,33.37
2018-02-22T01:55:07.089Z,30.40
2018-02-22T01:57:34.617Z,33.80
2018-02-22T02:00:02.154Z,35.60
2018-02-22T02:02:30.489Z,33.47
2018-02-22T02:04:57.998Z,33.87
2018-02-22T02:07:25.532Z,32.17
2018-02-22T02:09:53.330Z,33.27
2018-02-22T02:12:20.874Z,31.30
2018-02-22T02:14:49.148Z,34.43
2018-02-22T02:17:16.654Z,32.83
2018-02-22T02:19:44.180Z,29.77
2018-02-22T02:22:12.462Z,33.63
2018-02-22T02:24:39.987Z,31.23
2018-02-22T02:27:07.526Z,34.20
2018-02-22T02:29:35.123Z,31.27
2018-02-22T02:32:02.706Z,26.67
2018-02-22T02:34:30.262Z,32.83
2018-02-22T02:36:57.804Z,33.13
2018-02-22T02:39:26.104Z,33.47
2018-02-22T02:41:53.640Z,31.03
2018-02-22T02:44:21.943Z,30.57
2018-02-22T02:46:49.503Z,32.37
2018-02-22T02:49:17.050Z,32.60
2018-02-22T02:51:45.078Z,30.53
2018-02-22T02:54:12.597Z,30.73
2018-02-22T02:56:40.114Z,32.47
2018-02-22T02:59:07.628Z,32.60
2018-02-22T03:01:35.158Z,32.80
2018-02-22T03:04:02.693Z,28.77
2018-02-22T03:06:30.230Z,28.17
2018-02-22T03:08:58.526Z,30.77
2018-02-22T03:11:26.079Z,34.33
2018-02-22T03:13:53.622Z,32.23
2018-02-22T03:16:21.154Z,31.10
2018-02-22T03:18:48.702Z,31.77
2018-02-22T03:21:16.976Z,29.73
2018-02-22T03:23:44.485Z,31.23
2018-02-22T03:26:12.020Z,30.70
2018-02-22T03:28:40.294Z,28.27
2018-02-22T03:31:07.812Z,26.23
2018-02-22T03:33:35.376Z,29.63
2018-02-22T03:36:02.898Z,29.20
2018-02-22T03:38:30.491Z,31.03
2018-02-22T03:40:58.017Z,31.40
2018-02-22T03:43:25.537Z,27.70
2018-02-22T03:45:53.044Z,28.87
2018-02-22T03:48:20.562Z,31.03
2018-02-22T03:50:48.087Z,29.27
2018-02-22T03:53:15.603Z,27.33
2018-02-22T03:55:43.122Z,29.10
2018-02-22T03:58:10.647Z,30.53
2018-02-22T04:00:38.139Z,27.17
2018-02-22T04:03:05.667Z,28.43
2018-02-22T04:05:33.192Z,30.97
2018-02-22T04:08:01.507Z,29.87
2018-02-22T04:10:29.034Z,29.03
2018-02-22T04:12:56.567Z,28.27
2018-02-22T04:15:24.109Z,29.27
2018-02-22T04:17:51.686Z,30.60
2018-02-22T04:20:19.269Z,28.23
2018-02-22T04:22:46.784Z,30.57
2018-02-22T04:25:14.287Z,28.20
2018-02-22T04:27:42.568Z,28.90
2018-02-22T04:30:10.858Z,27.27
2018-02-22T04:32:38.371Z,29.70
2018-02-22T04:35:05.952Z,29.83
2018-02-22T04:37:34.235Z,23.97
2018-02-22T04:40:01.731Z,25.67
2018-02-22T04:42:29.238Z,29.23
2018-02-22T04:44:56.758Z,29.20
2018-02-22T04:47:24.256Z,26.33
2018-02-22T04:49:51.772Z,26.80
2018-02-22T04:52:19.292Z,26.37
2018-02-22T04:54:47.570Z,29.23
2018-02-22T04:57:15.110Z,30.50
2018-02-22T04:59:43.491Z,31.53
2018-02-22T05:02:10.987Z,29.10
2018-02-22T05:04:38.513Z,28.27
2018-02-22T05:07:06.021Z,26.60
2018-02-22T05:09:33.531Z,26.13
2018-02-22T05:12:01.089Z,25.80
2018-02-22T05:14:28.591Z,30.63
2018-02-22T05:16:56.090Z,27.57
2018-02-22T05:19:23.603Z,27.10
2018-02-22T05:21:51.122Z,26.53
2018-02-22T05:24:18.618Z,26.07
2018-02-22T05:26:46.150Z,27.37
2018-02-22T05:29:13.671Z,26.63
2018-02-22T05:31:41.209Z,26.60
2018-02-22T05:34:08.739Z,27.67
2018-02-22T05:36:36.276Z,26.50
2018-02-22T05:39:03.788Z,28.83
2018-02-22T05:41:31.284Z,30.00
2018-02-22T05:43:58.798Z,26.47
2018-02-22T05:46:26.288Z,23.70
2018-02-22T05:48:53.781Z,28.20
2018-02-22T05:51:21.296Z,26.53
2018-02-22T05:53:48.799Z,25.53
2018-02-22T05:56:16.305Z,25.43
2018-02-22T05:58:43.819Z,27.57
2018-02-22T06:01:11.392Z,24.97
2018-02-22T06:03:38.924Z,23.50
2018-02-22T06:06:06.426Z,26.47
2018-02-22T06:08:33.935Z,22.83
2018-02-22T06:11:01.513Z,25.43
2018-02-22T06:13:29.042Z,27.20
2018-02-22T06:15:56.547Z,20.73
2018-02-22T06:18:24.042Z,26.67
2018-02-22T06:20:51.556Z,25.10
2018-02-22T06:23:19.056Z,24.57
2018-02-22T06:25:46.582Z,24.37
2018-02-22T06:28:14.092Z,26.10
2018-02-22T06:30:41.600Z,27.47
2018-02-22T06:33:09.992Z,24.47
2018-02-22T06:35:37.503Z,24.43
2018-02-22T06:38:05.102Z,25.53
2018-02-22T06:40:32.638Z,27.70
2018-02-22T06:43:00.188Z,26.63
2018-02-22T06:45:27.716Z,21.63
2018-02-22T06:47:55.271Z,26.63
2018-02-22T06:50:23.541Z,25.97
2018-02-22T06:52:51.058Z,26.57
2018-02-22T06:55:18.690Z,25.70
2018-02-22T06:57:46.185Z,26.47
2018-02-22T07:00:13.681Z,25.70
2018-02-22T07:02:41.985Z,25.63
2018-02-22T07:05:10.265Z,24.80
2018-02-22T07:07:38.559Z,25.53
2018-02-22T07:10:06.064Z,23.77
2018-02-22T07:12:33.605Z,28.47
2018-02-22T07:15:01.122Z,26.97
2018-02-22T07:17:28.669Z,25.67
2018-02-22T07:19:56.951Z,26.77
2018-02-22T07:22:25.305Z,23.13
2018-02-22T07:24:52.828Z,25.70
2018-02-22T07:27:20.379Z,27.17
2018-02-22T07:29:47.915Z,24.33
2018-02-22T07:32:16.190Z,22.60
2018-02-22T07:34:43.685Z,26.27
2018-02-22T07:37:11.257Z,24.63
2018-02-22T07:39:38.767Z,25.80
2018-02-22T07:42:07.064Z,27.50
2018-02-22T07:44:34.591Z,26.20
2018-02-22T07:47:02.111Z,25.50
2018-02-22T07:49:29.651Z,27.63
2018-02-22T07:51:57.172Z,26.53
2018-02-22T07:54:24.697Z,27.30
2018-02-22T07:56:52.270Z,25.87
2018-02-22T07:59:19.800Z,21.80
2018-02-22T08:01:47.348Z,20.87
2018-02-22T08:04:14.886Z,23.40
2018-02-22T08:06:42.396Z,29.80
2018-02-22T08:09:09.901Z,26.23
2018-02-22T08:11:38.184Z,28.03
2018-02-22T08:14:05.687Z,25.87
2018-02-22T08:16:34.091Z,27.63
2018-02-22T08:19:01.636Z,27.47
2018-02-22T08:21:29.162Z,27.13
2018-02-22T08:23:56.665Z,23.07
2018-02-22T08:26:24.178Z,25.90
2018-02-22T08:28:51.672Z,27.73
2018-02-22T08:31:19.186Z,25.43
2018-02-22T08:33:46.757Z,27.53
2018-02-22T08:36:15.018Z,22.80
2018-02-22T08:38:42.528Z,28.63
2018-02-22T08:41:10.046Z,23.90
2018-02-22T08:43:37.583Z,20.20
2018-02-22T08:46:05.082Z,26.47
2018-02-22T08:48:33.113Z,25.30
2018-02-22T08:51:00.625Z,25.17
2018-02-22T08:53:28.132Z,23.67
2018-02-22T08:55:55.649Z,23.97
2018-02-22T08:58:23.139Z,25.10
2018-02-22T09:00:50.659Z,26.37
2018-02-22T09:03:19.496Z,23.10
2018-02-22T09:05:47.005Z,21.83
2018-02-22T09:08:14.512Z,22.10
2018-02-22T09:10:42.016Z,25.03
2018-02-22T09:13:09.714Z,23.60
2018-02-22T09:15:37.229Z,23.43
2018-02-22T09:18:05.512Z,22.10
2018-02-22T09:20:33.811Z,22.47
2018-02-22T09:23:01.328Z,19.77
2018-02-22T09:25:28.826Z,21.57
2018-02-22T09:27:56.334Z,22.53
2018-02-22T09:30:23.875Z,20.40
2018-02-22T09:32:51.380Z,20.87
2018-02-22T09:35:18.888Z,20.57
2018-02-22T09:37:46.398Z,19.03
2018-02-22T09:40:13.966Z,19.40
2018-02-22T09:42:42.236Z,18.13
2018-02-22T09:45:09.730Z,18.50
2018-02-22T09:47:37.238Z,19.93
2018-02-22T09:50:04.743Z,21.10
2018-02-22T09:52:32.262Z,17.20
2018-02-22T09:54:59.755Z,17.80
2018-02-22T09:57:27.273Z,17.60
2018-02-22T09:59:55.713Z,17.40
2018-02-22T10:02:23.214Z,16.43
2018-02-22T10:04:50.743Z,16.77
2018-02-22T10:07:18.235Z,16.73
2018-02-22T10:09:45.763Z,17.57
2018-02-22T10:12:13.282Z,19.87
2018-02-22T10:14:40.781Z,16.33
2018-02-22T10:17:08.269Z,17.23
2018-02-22T10:19:35.788Z,15.03
2018-02-22T10:22:04.057Z,15.40
2018-02-22T10:24:31.574Z,16.17
2018-02-22T10:26:59.113Z,16.93
2018-02-22T10:29:26.618Z,16.03
2018-02-22T10:31:54.154Z,16.43
2018-02-22T10:34:21.711Z,16.13
2018-02-22T10:36:49.203Z,16.17
2018-02-22T10:39:17.487Z,15.33
2018-02-22T10:41:44.995Z,14.87
2018-02-22T10:44:12.495Z,16.87
2018-02-22T10:46:40.783Z,15.33
2018-02-22T10:49:08.275Z,15.73
2018-02-22T10:51:35.802Z,16.70
2018-02-22T10:54:04.085Z,16.30
2018-02-22T10:56:32.386Z,15.90
2018-02-22T10:58:59.911Z,18.60
2018-02-22T11:01:33.893Z,17.97
2018-02-22T11:04:01.383Z,16.43
2018-02-22T11:06:29.674Z,15.00
2018-02-22T11:08:57.214Z,16.97
2018-02-22T11:11:25.467Z,18.27
2018-02-22T11:13:52.975Z,20.17
2018-02-22T11:16:20.484Z,14.90
2018-02-22T11:18:47.971Z,16.33
2018-02-22T11:21:16.247Z,17.40
2018-02-22T11:23:43.757Z,14.87
2018-02-22T11:26:11.265Z,18.23
2018-02-22T11:28:38.793Z,17.13
2018-02-22T11:31:06.300Z,14.97
2018-02-22T11:33:33.814Z,17.53
2018-02-22T11:36:01.353Z,15.47
2018-02-22T11:38:29.590Z,16.40
2018-02-22T11:40:57.094Z,16.37
2018-02-22T11:43:24.621Z,15.70
2018-02-22T11:45:52.110Z,16.90
2018-02-22T11:48:19.640Z,14.07
2018-02-22T11:50:47.224Z,14.83
2018-02-22T11:53:14.766Z,15.97
2018-02-22T11:55:42.286Z,13.13
2018-02-22T11:58:09.814Z,15.90
2018-02-22T12:00:37.326Z,15.47
2018-02-22T12:03:04.827Z,17.07
2018-02-22T12:05:32.327Z,13.37
2018-02-22T12:07:59.832Z,15.93
2018-02-22T12:10:27.344Z,15.57
2018-02-22T12:12:54.842Z,15.23
2018-02-22T12:15:23.094Z,15.50
2018-02-22T12:17:50.610Z,14.30
2018-02-22T12:20:18.105Z,15.30
2018-02-22T12:22:45.664Z,12.87
2018-02-22T12:25:13.195Z,13.83
2018-02-22T12:27:40.707Z,13.60
2018-02-22T12:30:08.267Z,14.20
2018-02-22T12:32:36.542Z,12.50
2018-02-22T12:35:04.078Z,12.93
2018-02-22T12:37:31.610Z,14.57
2018-02-22T12:39:59.134Z,11.37
2018-02-22T12:42:27.393Z,13.90
2018-02-22T12:44:54.919Z,12.97
2018-02-22T12:47:22.433Z,13.20
2018-02-22T12:49:49.966Z,15.83
2018-02-22T12:52:17.563Z,12.87
2018-02-22T12:54:45.065Z,15.17
2018-02-22T12:57:12.568Z,12.93
2018-02-22T12:59:40.090Z,12.20
2018-02-22T13:02:07.587Z,13.37
2018-02-22T13:04:35.088Z,12.73
2018-02-22T13:07:02.655Z,14.07
2018-02-22T13:09:30.199Z,13.17
2018-02-22T13:11:57.729Z,12.80
2018-02-22T13:14:25.296Z,13.93
2018-02-22T13:16:53.569Z,11.83
2018-02-22T13:19:21.843Z,15.37
2018-02-22T13:21:50.117Z,13.43
2018-02-22T13:24:18.411Z,12.97
2018-02-22T13:26:45.941Z,14.20
2018-02-22T13:29:13.453Z,15.20
2018-02-22T13:31:41.719Z,10.93
2018-02-22T13:34:20.992Z,12.70
2018-02-22T13:36:49.251Z,13.10
2018-02-22T13:39:16.739Z,13.50
2018-02-22T13:41:44.323Z,14.73
2018-02-22T13:44:23.561Z,12.40
2018-02-22T13:46:51.857Z,14.07
2018-02-22T13:52:21.258Z,11.30
2018-02-22T13:54:48.736Z,12.87
2018-02-22T13:57:19.967Z,12.60
2018-02-22T13:59:48.343Z,13.47
2018-02-22T14:02:25.135Z,12.00
2018-02-22T14:04:52.694Z,10.97
2018-02-22T14:07:20.220Z,12.40
2018-02-22T14:09:47.747Z,14.73
2018-02-22T14:12:16.044Z,14.13
2018-02-22T14:14:43.547Z,12.20
2018-02-22T14:17:11.180Z,10.67
2018-02-22T14:19:38.658Z,15.53
2018-02-22T14:22:06.186Z,11.30
2018-02-22T14:24:33.706Z,11.73
2018-02-22T14:27:01.216Z,8.87
2018-02-22T14:29:28.710Z,10.13
2018-02-22T14:31:56.245Z,8.57
2018-02-22T14:34:23.727Z,11.47
2018-02-22T14:36:51.236Z,11.03
2018-02-22T14:39:18.732Z,11.23
2018-02-22T14:41:46.246Z,11.53
2018-02-22T14:44:13.743Z,8.63
2018-02-22T14:46:41.230Z,7.67
2018-02-22T14:49:09.540Z,9.90
2018-02-22T14:51:37.091Z,12.10
2018-02-22T14:54:04.592Z,13.20
2018-02-22T14:56:32.142Z,13.30
2018-02-22T14:58:59.628Z,11.70
2018-02-22T15:01:27.180Z,11.07
2018-02-22T15:03:54.704Z,9.40
2018-02-22T15:06:22.230Z,13.83
2018-02-22T15:08:50.510Z,10.60
2018-02-22T15:11:18.796Z,10.00
2018-02-22T15:13:46.325Z,10.70
2018-02-22T15:16:13.850Z,9.40
2018-02-22T15:18:41.380Z,11.73
2018-02-22T15:21:08.882Z,11.63
2018-02-22T15:23:36.394Z,9.23
2018-02-22T15:26:04.672Z,10.53
2018-02-22T15:28:32.185Z,10.50
2018-02-22T15:30:59.696Z,9.97
2018-02-22T15:33:27.287Z,11.33
2018-02-22T15:35:54.800Z,9.43
2018-02-22T15:38:22.327Z,11.60
2018-02-22T15:40:49.835Z,8.43
2018-02-22T15:43:18.117Z,9.83
2018-02-22T15:45:46.377Z,10.40
2018-02-22T15:48:14.658Z,10.23
2018-02-22T15:50:43.018Z,8.93
2018-02-22T15:53:10.519Z,9.80
2018-02-22T15:55:38.039Z,11.53
2018-02-22T15:58:05.535Z,8.83
2018-02-22T16:00:33.036Z,8.53
2018-02-22T16:03:00.537Z,8.57
2018-02-22T16:05:28.809Z,10.30
2018-02-22T16:07:57.096Z,10.57
2018-02-22T16:10:25.381Z,10.20
2018-02-22T16:12:52.931Z,9.17
2018-02-22T16:15:21.212Z,14.03
2018-02-22T16:17:48.725Z,10.03
2018-02-22T16:20:16.239Z,8.83
2018-02-22T16:22:44.507Z,9.03
2018-02-22T16:25:12.004Z,9.20
2018-02-22T16:27:39.523Z,11.03
2018-02-22T16:30:07.788Z,11.27
2018-02-22T16:32:35.283Z,11.50
2018-02-22T16:35:02.824Z,11.03
2018-02-22T16:37:30.358Z,11.00
2018-02-22T16:40:00.001Z,8.77
2018-02-22T16:42:27.634Z,10.43
2018-02-22T16:44:55.137Z,10.57
2018-02-22T16:47:22.655Z,13.37
2018-02-22T16:49:50.156Z,9.73
2018-02-22T16:52:17.660Z,9.70
2018-02-22T16:54:45.232Z,10.77
2018-02-22T16:57:12.728Z,11.17
2018-02-22T16:59:41.023Z,9.63
2018-02-22T17:02:08.526Z,10.27
2018-02-22T17:04:36.057Z,11.63
2018-02-22T17:07:03.550Z,11.77
2018-02-22T17:09:31.067Z,9.67
2018-02-22T17:11:58.555Z,12.00
2018-02-22T17:14:26.073Z,12.00
2018-02-22T17:16:53.586Z,13.43
2018-02-22T17:19:21.088Z,13.30
2018-02-22T17:21:49.375Z,14.23
2018-02-22T17:24:16.882Z,12.70
2018-02-22T17:26:49.931Z,12.07
2018-02-22T17:29:23.161Z,12.57
2018-02-22T17:31:56.289Z,12.40
2018-02-22T17:34:24.546Z,13.00
2018-02-22T17:36:52.069Z,12.47
2018-02-22T17:42:20.405Z,16.70
2018-02-22T17:44:47.897Z,14.53
2018-02-22T17:47:15.459Z,13.60
2018-02-22T17:49:43.723Z,13.37
2018-02-22T17:52:11.231Z,14.13
2018-02-22T17:54:38.715Z,13.53
2018-02-22T17:57:06.236Z,13.50
2018-02-22T17:59:33.730Z,13.80
2018-02-22T18:02:01.277Z,14.77
2018-02-22T18:04:28.792Z,12.60
2018-02-22T18:06:56.377Z,14.07
2018-02-22T18:09:23.892Z,13.00
2018-02-22T18:11:51.391Z,12.00
2018-02-22T18:14:18.889Z,13.00
2018-02-22T18:16:46.388Z,13.60
2018-02-22T18:19:15.478Z,13.93
2018-02-22T18:21:42.994Z,10.00
2018-02-22T18:24:10.515Z,15.90
2018-02-22T18:26:38.037Z,15.53
2018-02-22T18:29:05.558Z,14.00
2018-02-22T18:31:33.975Z,17.57
2018-02-22T18:34:01.479Z,15.13
2018-02-22T18:36:29.034Z,14.47
2018-02-22T18:39:02.098Z,16.47
2018-02-22T18:41:36.069Z,13.40
2018-02-22T18:44:09.198Z,16.83
2018-02-22T18:46:36.684Z,16.50
2018-02-22T18:49:04.180Z,15.90
2018-02-22T18:51:31.697Z,17.40
2018-02-22T18:53:59.961Z,17.75
2018-02-22T18:56:27.464Z,18.53
2018-02-22T18:58:55.021Z,19.07
2018-02-22T19:01:22.512Z,15.93
2018-02-22T19:03:50.029Z,16.10
2018-02-22T19:06:17.592Z,16.00
2018-02-22T19:08:45.104Z,17.47
2018-02-22T19:11:12.588Z,16.53
2018-02-22T19:13:40.873Z,16.43
2018-02-22T19:16:08.392Z,16.73
2018-02-22T19:18:35.955Z,16.57
2018-02-22T19:21:03.454Z,16.43
2018-02-22T19:23:30.972Z,14.83
2018-02-22T19:25:58.571Z,17.77
2018-02-22T19:28:26.901Z,18.70
2018-02-22T19:30:54.774Z,18.27
2018-02-22T19:33:22.285Z,17.47
2018-02-22T19:35:50.563Z,22.77
2018-02-22T19:38:18.864Z,19.27
2018-02-22T19:40:46.368Z,20.27
2018-02-22T19:43:13.969Z,23.17
2018-02-22T19:45:41.492Z,21.27
2018-02-22T19:48:08.994Z,19.30
2018-02-22T19:50:36.522Z,21.40
2018-02-22T19:53:04.031Z,22.53
2018-02-22T19:55:31.529Z,22.07
2018-02-22T19:57:59.052Z,22.10
2018-02-22T20:00:26.570Z,21.87
2018-02-22T20:02:54.081Z,20.60
2018-02-22T20:05:21.589Z,16.47
2018-02-22T20:07:49.885Z,21.83
2018-02-22T20:10:17.424Z,20.33
2018-02-22T20:12:44.931Z,19.07
2018-02-22T20:15:12.540Z,19.27
2018-02-22T20:17:40.061Z,19.40
2018-02-22T20:20:07.570Z,18.93
2018-02-22T20:22:35.923Z,19.03
2018-02-22T20:25:03.421Z,20.77
2018-02-22T20:27:32.028Z,21.07
2018-02-22T20:29:59.599Z,21.00
2018-02-22T20:32:27.105Z,17.87
2018-02-22T20:34:54.669Z,18.53
2018-02-22T20:37:22.180Z,20.90
2018-02-22T20:39:49.721Z,19.83
2018-02-22T20:42:18.001Z,18.57
2018-02-22T20:44:45.560Z,21.93
2018-02-22T20:47:13.061Z,16.27
2018-02-22T20:49:41.853Z,19.83
2018-02-22T20:52:09.911Z,19.03
2018-02-22T20:54:37.420Z,20.10
2018-02-22T20:57:10.426Z,20.13
2018-02-22T20:59:38.685Z,21.63
2018-02-22T21:02:06.214Z,19.47
2018-02-22T21:04:33.821Z,19.33
2018-02-22T21:07:02.100Z,18.93
2018-02-22T21:09:30.380Z,20.07
2018-02-22T21:11:58.665Z,20.33
2018-02-22T21:14:26.172Z,21.57
2018-02-22T21:16:53.742Z,20.50
2018-02-22T21:19:22.076Z,18.40
2018-02-22T21:21:49.585Z,16.17
2018-02-22T21:24:17.102Z,22.13
2018-02-22T21:26:44.669Z,19.77
2018-02-22T21:29:12.202Z,20.07
2018-02-22T21:31:40.466Z,21.43
2018-02-22T21:34:08.743Z,22.10
2018-02-22T21:36:36.343Z,20.57
2018-02-22T21:39:04.665Z,21.87
2018-02-22T21:41:32.974Z,21.70
2018-02-22T21:44:00.549Z,21.50
2018-02-22T21:46:28.053Z,17.90
2018-02-22T21:48:55.598Z,18.70
2018-02-22T21:51:23.107Z,20.40
2018-02-22T21:53:50.601Z,22.77
2018-02-22T21:56:18.156Z,19.73
2018-02-22T21:58:45.701Z,20.80
2018-02-22T22:01:13.212Z,19.20
2018-02-22T22:03:40.786Z,19.60
2018-02-22T22:06:08.313Z,18.30
2018-02-22T22:08:35.821Z,20.67
2018-02-22T22:11:03.340Z,18.13
2018-02-22T22:13:30.901Z,21.10
2018-02-22T22:15:58.411Z,20.90
2018-02-22T22:18:25.960Z,22.67
2018-02-22T22:20:53.600Z,20.53
2018-02-22T22:23:21.126Z,20.77
2018-02-22T22:25:48.649Z,23.23
2018-02-22T22:28:16.165Z,21.63
2018-02-22T22:30:43.699Z,24.33
2018-02-22T22:33:11.240Z,22.17
2018-02-22T22:35:39.518Z,22.93
2018-02-22T22:38:07.807Z,22.97
2018-02-22T22:40:35.358Z,23.10
2018-02-22T22:43:02.886Z,22.33
2018-02-22T22:45:30.385Z,21.60
2018-02-22T22:47:58.678Z,22.97
2018-02-22T22:50:26.202Z,21.57
2018-02-22T22:52:54.490Z,21.27
2018-02-22T22:55:22.787Z,23.03
2018-02-22T22:57:50.358Z,23.60
2018-02-22T23:00:22.702Z,23.43
2018-02-22T23:02:50.988Z,21.50
2018-02-22T23:05:18.511Z,22.00
2018-02-22T23:07:46.049Z,24.40
2018-02-22T23:10:14.108Z,23.57
2018-02-22T23:12:41.600Z,21.37
2018-02-22T23:15:09.109Z,23.00
2018-02-22T23:17:36.631Z,21.60
2018-02-22T23:20:04.142Z,21.07
2018-02-22T23:22:31.663Z,21.60
2018-02-22T23:24:59.172Z,21.30
2018-02-22T23:27:26.665Z,21.00
2018-02-22T23:29:54.183Z,20.23
2018-02-22T23:32:21.712Z,19.33
2018-02-22T23:34:49.225Z,22.30
2018-02-22T23:37:16.734Z,21.93
2018-02-22T23:39:45.067Z,19.20
2018-02-22T23:42:18.439Z,19.70
2018-02-22T23:44:46.034Z,19.10
2018-02-22T23:47:13.627Z,20.97
2018-02-22T23:49:41.217Z,20.53
2018-02-22T23:52:08.741Z,20.40
2018-02-22T23:54:36.283Z,19.67
2018-02-22T23:57:03.801Z,21.63
2018-02-22T23:59:31.340Z,20.37
